Norway, Kansas
Current Conditions -  °F | °C
As of 8:55 AM on Wednesday 26 Nov 2014 (Local Time) from KCNK Reporting Station
Overcast Overcast  
Wind Chill: 26°   Ceiling: 3800
Heat Index: 38°   Visibility: 10mi
Dew Point: 23°   Wind: 28mph
Humidity: 55%   Direction: 320°NW
Pressure: 30.07"   Gusts: 36mph
Location:  39.7°N, 97.77°W
Report Text: KCNK 261455Z AUTO 32024G31KT 10SM BKN038 OVC050 03/M05 A3007 RMK AO2 PK WND 33036/1426 SLP190 T00331050 53023
Loading
Personal Weather Stations






























Interactive Weather Map New forecast layout! Learn more

10-Day Weather Forecast

Advertisements
Track Severe Weather on mobile